createdAt,value
2023-05-10T00:01:12.883Z,5.57
2023-05-10T00:03:41.885Z,7.38
2023-05-10T00:06:08.446Z,6.85
2023-05-10T00:08:34.931Z,5.55
2023-05-10T00:11:01.466Z,4.93
2023-05-10T00:13:28.142Z,6.10
2023-05-10T00:15:54.688Z,4.53
2023-05-10T00:18:21.407Z,5.63
2023-05-10T00:20:48.080Z,4.88
2023-05-10T00:23:14.572Z,7.40
2023-05-10T00:25:41.089Z,4.95
2023-05-10T00:28:07.656Z,6.07
2023-05-10T00:30:34.233Z,5.28
2023-05-10T00:33:02.000Z,4.28
2023-05-10T00:35:28.577Z,6.22
2023-05-10T00:37:55.117Z,4.05
2023-05-10T00:40:21.919Z,7.80
2023-05-10T00:42:53.326Z,5.40
2023-05-10T00:45:20.280Z,6.40
2023-05-10T00:47:46.975Z,5.03
2023-05-10T00:50:14.864Z,5.90
2023-05-10T00:52:41.786Z,4.60
2023-05-10T00:55:08.730Z,7.70
2023-05-10T00:57:35.414Z,4.47
2023-05-10T01:00:03.187Z,6.10
2023-05-10T01:02:29.902Z,5.72
2023-05-10T01:04:57.147Z,4.78
2023-05-10T01:07:24.361Z,5.18
2023-05-10T01:09:50.948Z,3.80
2023-05-10T01:12:17.575Z,4.53
2023-05-10T01:14:44.172Z,5.93
2023-05-10T01:17:12.002Z,6.18
2023-05-10T01:19:39.075Z,5.28
2023-05-10T01:22:14.864Z,5.75
2023-05-10T01:24:59.571Z,4.70
2023-05-10T01:27:28.917Z,4.65
2023-05-10T01:30:21.776Z,5.35
2023-05-10T01:33:07.682Z,7.13
2023-05-10T01:35:38.977Z,7.82
2023-05-10T01:38:08.609Z,6.40
2023-05-10T01:40:35.082Z,5.40
2023-05-10T01:43:03.578Z,6.85
2023-05-10T01:45:32.888Z,5.63
2023-05-10T01:48:19.628Z,5.97
2023-05-10T01:50:47.365Z,5.53
2023-05-10T01:53:14.751Z,7.85
2023-05-10T01:55:46.585Z,5.32
2023-05-10T01:58:15.129Z,7.13
2023-05-10T02:00:43.942Z,4.55
2023-05-10T02:03:11.324Z,5.90
2023-05-10T02:05:42.337Z,6.35
2023-05-10T02:08:09.254Z,5.30
2023-05-10T02:10:37.338Z,4.20
2023-05-10T02:13:04.454Z,3.63
2023-05-10T02:15:32.209Z,6.55
2023-05-10T02:17:59.623Z,5.00
2023-05-10T02:20:27.090Z,4.03
2023-05-10T02:22:55.188Z,5.63
2023-05-10T02:25:22.756Z,6.13
2023-05-10T02:27:49.691Z,5.78
2023-05-10T02:30:16.984Z,5.10
2023-05-10T02:32:44.127Z,6.15
2023-05-10T02:35:11.278Z,5.18
2023-05-10T02:37:37.985Z,7.18
2023-05-10T02:40:05.736Z,5.53
2023-05-10T02:42:33.726Z,5.07
2023-05-10T02:45:06.301Z,6.50
2023-05-10T02:47:32.969Z,8.63
2023-05-10T02:49:59.665Z,7.07
2023-05-10T02:52:28.508Z,6.85
2023-05-10T02:55:01.328Z,4.57
2023-05-10T02:57:29.722Z,5.40
2023-05-10T02:59:56.687Z,5.88
2023-05-10T03:02:23.408Z,7.60
2023-05-10T03:04:50.100Z,6.35
2023-05-10T03:07:18.034Z,5.20
2023-05-10T03:09:44.654Z,6.60
2023-05-10T03:12:30.042Z,3.95
2023-05-10T03:14:56.538Z,4.90
2023-05-10T03:17:25.138Z,5.53
2023-05-10T03:19:58.866Z,4.85
2023-05-10T03:22:27.750Z,7.03
2023-05-10T03:24:56.474Z,6.10
2023-05-10T03:27:26.321Z,6.53
2023-05-10T03:29:54.501Z,5.78
2023-05-10T03:32:21.252Z,4.90
2023-05-10T03:34:48.347Z,6.80
2023-05-10T03:37:14.916Z,6.15
2023-05-10T03:39:41.656Z,4.88
2023-05-10T03:42:12.794Z,6.25
2023-05-10T03:44:42.451Z,5.32
2023-05-10T03:47:09.296Z,4.82
2023-05-10T03:49:35.996Z,6.70
2023-05-10T03:52:03.419Z,6.40
2023-05-10T03:54:31.394Z,5.72
2023-05-10T03:56:59.164Z,11.07
2023-05-10T03:59:25.954Z,5.07
2023-05-10T04:01:52.658Z,6.82
2023-05-10T04:04:19.871Z,6.05
2023-05-10T04:06:48.605Z,4.93
2023-05-10T04:09:18.128Z,6.03
2023-05-10T04:11:44.819Z,5.82
2023-05-10T04:14:11.449Z,8.13
2023-05-10T04:16:39.952Z,4.00
2023-05-10T04:19:06.805Z,5.15
2023-05-10T04:21:33.245Z,6.05
2023-05-10T04:23:59.795Z,7.68
2023-05-10T04:26:26.604Z,7.35
2023-05-10T04:28:53.203Z,7.30
2023-05-10T04:31:19.791Z,8.30
2023-05-10T04:33:46.337Z,8.50
2023-05-10T04:36:12.808Z,8.30
2023-05-10T04:38:39.427Z,6.95
2023-05-10T04:41:09.388Z,7.32
2023-05-10T04:43:36.330Z,5.30
2023-05-10T04:46:03.010Z,4.63
2023-05-10T04:48:29.867Z,7.30
2023-05-10T04:50:56.425Z,8.02
2023-05-10T04:53:23.060Z,6.65
2023-05-10T04:55:49.888Z,8.35
2023-05-10T04:58:16.401Z,6.60
2023-05-10T05:00:43.378Z,5.38
2023-05-10T05:03:10.726Z,6.80
2023-05-10T05:05:37.381Z,4.97
2023-05-10T05:08:04.057Z,5.03
2023-05-10T05:10:30.907Z,5.43
2023-05-10T05:12:57.462Z,4.75
2023-05-10T05:15:27.113Z,4.80
2023-05-10T05:17:53.631Z,5.20
2023-05-10T05:20:20.292Z,7.28
2023-05-10T05:22:46.836Z,5.47
2023-05-10T05:25:13.698Z,5.35
2023-05-10T05:27:40.234Z,6.90
2023-05-10T05:30:07.470Z,4.75
2023-05-10T05:32:34.030Z,4.90
2023-05-10T05:35:00.670Z,6.13
2023-05-10T05:37:27.480Z,6.93
2023-05-10T05:39:55.435Z,5.40
2023-05-10T05:42:21.896Z,5.28
2023-05-10T05:44:48.434Z,7.05
2023-05-10T05:47:15.007Z,5.97
2023-05-10T05:49:41.607Z,5.03
2023-05-10T05:52:08.067Z,5.18
2023-05-10T05:54:34.657Z,5.03
2023-05-10T05:57:01.691Z,4.32
2023-05-10T05:59:28.460Z,6.68
2023-05-10T06:01:55.162Z,6.15
2023-05-10T06:04:21.756Z,4.80
2023-05-10T06:06:55.733Z,5.22
2023-05-10T06:09:22.267Z,6.43
2023-05-10T06:11:48.823Z,5.47
2023-05-10T06:14:15.820Z,5.32
2023-05-10T06:16:42.383Z,4.85
2023-05-10T06:19:08.962Z,7.45
2023-05-10T06:21:35.475Z,4.85
2023-05-10T06:24:02.072Z,4.22
2023-05-10T06:26:28.639Z,4.72
2023-05-10T06:28:55.349Z,5.60
2023-05-10T06:31:22.010Z,6.70
2023-05-10T06:33:48.672Z,4.47
2023-05-10T06:36:15.433Z,4.63
2023-05-10T06:38:42.103Z,5.45
2023-05-10T06:41:09.122Z,5.97
2023-05-10T06:43:35.958Z,5.75
2023-05-10T06:46:02.517Z,9.02
2023-05-10T06:48:29.156Z,3.95
2023-05-10T06:50:55.647Z,5.25
2023-05-10T06:53:22.227Z,5.20
2023-05-10T06:55:50.015Z,7.22
2023-05-10T06:58:16.927Z,6.18
2023-05-10T07:00:44.840Z,5.07
2023-05-10T07:03:11.823Z,4.85
2023-05-10T07:05:38.592Z,4.75
2023-05-10T07:08:05.269Z,5.47
2023-05-10T07:10:31.977Z,5.78
2023-05-10T07:12:58.563Z,8.20
2023-05-10T07:15:25.275Z,5.28
2023-05-10T07:17:52.991Z,5.53
2023-05-10T07:20:19.879Z,5.32
2023-05-10T07:22:46.407Z,6.20
2023-05-10T07:25:13.019Z,4.47
2023-05-10T07:27:39.665Z,5.55
2023-05-10T07:30:06.494Z,6.22
2023-05-10T07:32:35.348Z,5.22
2023-05-10T07:35:02.142Z,7.18
2023-05-10T07:37:28.650Z,5.82
2023-05-10T07:39:55.213Z,8.25
2023-05-10T07:42:21.780Z,5.30
2023-05-10T07:44:48.336Z,5.75
2023-05-10T07:47:14.811Z,5.47
2023-05-10T07:49:41.933Z,6.03
2023-05-10T07:52:08.482Z,4.70
2023-05-10T07:54:35.016Z,8.15
2023-05-10T07:57:01.562Z,5.50
2023-05-10T07:59:28.139Z,8.32
2023-05-10T08:01:54.664Z,6.15
2023-05-10T08:04:21.180Z,4.82
2023-05-10T08:06:47.826Z,6.10
2023-05-10T08:09:14.440Z,7.35
2023-05-10T08:11:41.034Z,5.88
2023-05-10T08:14:07.580Z,6.72
2023-05-10T08:16:34.160Z,6.25
2023-05-10T08:19:00.967Z,4.60
2023-05-10T08:21:27.481Z,5.93
2023-05-10T08:23:54.047Z,5.38
2023-05-10T08:26:22.432Z,7.22
2023-05-10T08:28:48.916Z,5.95
2023-05-10T08:31:15.916Z,5.90
2023-05-10T08:33:44.431Z,5.97
2023-05-10T08:36:11.590Z,6.50
2023-05-10T08:38:38.863Z,5.50
2023-05-10T08:41:06.377Z,5.45
2023-05-10T08:43:36.121Z,8.52
2023-05-10T08:46:07.947Z,5.63
2023-05-10T08:48:35.568Z,6.72
2023-05-10T08:51:03.678Z,5.88
2023-05-10T08:53:31.320Z,6.20
2023-05-10T08:55:58.025Z,4.10
2023-05-10T08:58:24.626Z,5.95
2023-05-10T09:00:54.480Z,6.13
2023-05-10T09:03:21.182Z,6.30
2023-05-10T09:05:48.473Z,6.88
2023-05-10T09:08:17.206Z,5.25
2023-05-10T09:10:44.630Z,9.25
2023-05-10T09:13:12.617Z,4.40
2023-05-10T09:15:39.506Z,5.93
2023-05-10T09:18:06.202Z,5.72
2023-05-10T09:20:32.751Z,6.00
2023-05-10T09:22:59.313Z,5.63
2023-05-10T09:25:27.394Z,5.82
2023-05-10T09:27:54.014Z,4.53
2023-05-10T09:30:27.970Z,6.80
2023-05-10T09:32:55.361Z,4.80
2023-05-10T09:35:25.090Z,5.05
2023-05-10T09:37:57.092Z,7.75
2023-05-10T09:40:25.404Z,5.40
2023-05-10T09:43:01.828Z,5.25
2023-05-10T09:45:32.137Z,5.70
2023-05-10T09:47:59.587Z,4.68
2023-05-10T09:50:26.557Z,7.60
2023-05-10T09:52:54.048Z,5.43
2023-05-10T09:55:22.776Z,5.80
2023-05-10T09:57:52.457Z,6.45
2023-05-10T10:00:21.968Z,6.65
2023-05-10T10:02:55.243Z,7.38
2023-05-10T10:05:22.019Z,4.95
2023-05-10T10:07:50.259Z,5.47
2023-05-10T10:10:17.043Z,6.47
2023-05-10T10:12:43.733Z,10.88
2023-05-10T10:15:10.788Z,5.43
2023-05-10T10:17:39.219Z,5.45
2023-05-10T10:20:06.010Z,5.45
2023-05-10T10:22:32.591Z,8.35
2023-05-10T10:25:00.007Z,6.07
2023-05-10T10:27:55.987Z,6.80
2023-05-10T10:30:25.233Z,7.50
2023-05-10T10:33:24.372Z,5.45
2023-05-10T10:35:55.462Z,6.30
2023-05-10T10:38:22.059Z,6.40
2023-05-10T10:40:48.925Z,5.25
2023-05-10T10:43:23.751Z,6.78
2023-05-10T10:46:09.049Z,5.03
2023-05-10T10:48:36.316Z,7.63
2023-05-10T10:51:03.455Z,8.13
2023-05-10T10:53:30.429Z,7.93
2023-05-10T10:56:06.638Z,6.45
2023-05-10T10:58:35.442Z,7.47
2023-05-10T11:01:15.728Z,7.38
2023-05-10T11:03:42.853Z,7.20
2023-05-10T11:06:09.746Z,6.95
2023-05-10T11:08:43.365Z,7.60
2023-05-10T11:14:03.690Z,7.55
2023-05-10T11:16:41.326Z,7.57
2023-05-10T11:19:08.675Z,7.05
2023-05-10T11:21:44.883Z,7.43
2023-05-10T11:24:15.648Z,7.47
2023-05-10T11:26:42.487Z,7.50
2023-05-10T11:29:09.038Z,7.93
2023-05-10T11:31:35.824Z,7.75
2023-05-10T11:34:06.002Z,8.43
2023-05-10T11:36:36.860Z,7.55
2023-05-10T11:39:04.061Z,7.43
2023-05-10T11:41:31.745Z,7.70
2023-05-10T11:43:58.859Z,8.02
2023-05-10T11:46:30.497Z,8.98
2023-05-10T11:48:59.086Z,7.35
2023-05-10T11:51:27.345Z,7.60
2023-05-10T11:53:55.040Z,8.15
2023-05-10T11:56:21.733Z,8.27
2023-05-10T11:58:53.610Z,11.10
2023-05-10T12:01:20.095Z,8.05
2023-05-10T12:03:46.894Z,7.85
2023-05-10T12:06:13.640Z,8.52
2023-05-10T12:08:53.334Z,7.72
2023-05-10T12:11:20.308Z,8.10
2023-05-10T12:13:50.923Z,8.07
2023-05-10T12:16:18.451Z,8.25
2023-05-10T12:18:45.911Z,7.57
2023-05-10T12:21:12.986Z,8.10
2023-05-10T12:23:39.908Z,7.00
2023-05-10T12:26:06.871Z,7.03
2023-05-10T12:28:33.971Z,6.90
2023-05-10T12:31:00.922Z,7.28
2023-05-10T12:33:27.414Z,7.55
2023-05-10T12:35:54.912Z,7.88
2023-05-10T12:38:30.158Z,8.30
2023-05-10T12:40:57.613Z,8.23
2023-05-10T12:43:24.267Z,9.43
2023-05-10T12:45:50.864Z,10.15
2023-05-10T12:48:17.409Z,8.25
2023-05-10T12:50:44.019Z,7.68
2023-05-10T12:53:10.666Z,9.00
2023-05-10T12:55:37.168Z,11.25
2023-05-10T12:58:03.682Z,9.75
2023-05-10T13:00:30.242Z,7.75
2023-05-10T13:02:56.816Z,9.30
2023-05-10T13:05:23.356Z,8.65
2023-05-10T13:07:49.890Z,8.68
2023-05-10T13:10:17.151Z,8.35
2023-05-10T13:12:43.851Z,10.32
2023-05-10T13:15:10.413Z,8.20
2023-05-10T13:17:36.923Z,9.27
2023-05-10T13:20:04.356Z,7.97
2023-05-10T13:22:39.922Z,8.20
2023-05-10T13:25:07.303Z,7.65
2023-05-10T13:27:33.833Z,7.10
2023-05-10T13:30:00.525Z,7.45
2023-05-10T13:32:27.335Z,6.00
2023-05-10T13:34:53.850Z,6.97
2023-05-10T13:37:20.526Z,6.38
2023-05-10T13:39:47.075Z,5.88
2023-05-10T13:42:13.621Z,5.45
2023-05-10T13:44:40.402Z,5.68
2023-05-10T13:47:07.132Z,6.07
2023-05-10T13:49:34.838Z,6.47
2023-05-10T13:52:07.683Z,6.78
2023-05-10T13:54:35.098Z,6.93
2023-05-10T13:57:01.682Z,6.40
2023-05-10T13:59:28.263Z,6.68
2023-05-10T14:01:54.816Z,6.93
2023-05-10T14:04:21.669Z,5.97
2023-05-10T14:06:48.314Z,6.53
2023-05-10T14:09:15.240Z,6.18
2023-05-10T14:11:44.146Z,6.00
2023-05-10T14:14:12.521Z,5.45
2023-05-10T14:16:39.209Z,5.70
2023-05-10T14:19:05.806Z,5.95
2023-05-10T14:21:32.406Z,7.35
2023-05-10T14:23:58.934Z,6.88
2023-05-10T14:26:25.527Z,6.15
2023-05-10T14:28:52.554Z,5.65
2023-05-10T14:31:21.342Z,5.53
2023-05-10T14:33:48.078Z,5.63
2023-05-10T14:36:14.795Z,5.97
2023-05-10T14:38:41.675Z,5.22
2023-05-10T14:41:09.461Z,5.45
2023-05-10T14:43:37.760Z,5.43
2023-05-10T14:46:04.480Z,5.72
2023-05-10T14:48:31.108Z,4.63
2023-05-10T14:50:57.713Z,4.18
2023-05-10T14:53:24.259Z,5.47
2023-05-10T14:55:50.897Z,4.53
2023-05-10T14:58:17.610Z,4.43
2023-05-10T15:00:44.540Z,4.95
2023-05-10T15:03:11.847Z,4.75
2023-05-10T15:05:39.010Z,5.57
2023-05-10T15:08:06.665Z,3.63
2023-05-10T15:10:36.097Z,4.60
2023-05-10T15:13:04.633Z,5.25
2023-05-10T15:15:31.873Z,4.90
2023-05-10T15:17:58.633Z,4.80
2023-05-10T15:20:25.161Z,4.30
2023-05-10T15:22:51.802Z,5.15
2023-05-10T15:25:18.667Z,4.50
2023-05-10T15:27:45.584Z,4.82
2023-05-10T15:30:12.334Z,5.07
2023-05-10T15:32:40.368Z,3.40
2023-05-10T15:35:07.608Z,3.13
2023-05-10T15:37:34.184Z,3.97
2023-05-10T15:40:04.684Z,4.70
2023-05-10T15:42:32.721Z,5.72
2023-05-10T15:44:59.665Z,4.75
2023-05-10T15:47:26.804Z,4.15
2023-05-10T15:49:53.428Z,4.68
2023-05-10T15:52:21.596Z,4.18
2023-05-10T15:54:48.060Z,4.82
2023-05-10T15:57:17.223Z,5.40
2023-05-10T15:59:43.895Z,4.97
2023-05-10T16:02:11.087Z,4.40
2023-05-10T16:04:37.898Z,3.70
2023-05-10T16:07:04.514Z,4.65
2023-05-10T16:09:31.066Z,3.80
2023-05-10T16:11:57.571Z,5.35
2023-05-10T16:14:24.779Z,5.35
2023-05-10T16:16:51.687Z,5.20
2023-05-10T16:19:18.577Z,5.07
2023-05-10T16:21:45.298Z,5.47
2023-05-10T16:24:11.824Z,6.20
2023-05-10T16:26:41.026Z,5.85
2023-05-10T16:29:08.406Z,4.80
2023-05-10T16:31:35.219Z,5.43
2023-05-10T16:34:01.930Z,4.72
2023-05-10T16:36:29.526Z,4.78
2023-05-10T16:38:56.564Z,5.85
2023-05-10T16:41:23.234Z,5.93
2023-05-10T16:43:50.150Z,5.53
2023-05-10T16:46:16.736Z,5.57
2023-05-10T16:48:43.416Z,4.22
2023-05-10T16:51:09.976Z,3.45
2023-05-10T16:53:36.415Z,5.13
2023-05-10T16:56:03.252Z,4.15
2023-05-10T16:58:29.736Z,4.93
2023-05-10T17:00:56.295Z,5.47
2023-05-10T17:03:23.251Z,5.97
2023-05-10T17:05:50.054Z,6.43
2023-05-10T17:08:16.605Z,5.22
2023-05-10T17:10:43.125Z,5.45
2023-05-10T17:13:10.608Z,5.45
2023-05-10T17:15:37.706Z,6.25
2023-05-10T17:18:04.772Z,5.25
2023-05-10T17:20:31.391Z,5.70
2023-05-10T17:22:58.144Z,5.47
2023-05-10T17:25:24.657Z,5.30
2023-05-10T17:27:51.146Z,5.10
2023-05-10T17:30:22.492Z,5.43
2023-05-10T17:32:49.095Z,5.07
2023-05-10T17:35:16.180Z,5.78
2023-05-10T17:37:44.119Z,5.18
2023-05-10T17:40:11.441Z,5.22
2023-05-10T17:42:38.038Z,5.22
2023-05-10T17:45:04.698Z,5.10
2023-05-10T17:47:31.257Z,4.60
2023-05-10T17:49:57.839Z,4.22
2023-05-10T17:52:24.375Z,5.00
2023-05-10T17:54:51.231Z,4.70
2023-05-10T17:57:18.438Z,5.65
2023-05-10T17:59:44.944Z,5.43
2023-05-10T18:02:11.456Z,4.97
2023-05-10T18:04:39.699Z,6.03
2023-05-10T18:07:08.974Z,5.93
2023-05-10T18:09:35.678Z,6.32
2023-05-10T18:12:02.461Z,5.13
2023-05-10T18:14:39.952Z,5.15
2023-05-10T18:17:08.161Z,5.47
2023-05-10T18:19:34.833Z,5.75
2023-05-10T18:22:01.392Z,6.60
2023-05-10T18:24:38.246Z,5.80
2023-05-10T18:27:06.739Z,5.22
2023-05-10T18:29:34.178Z,5.30
2023-05-10T18:32:00.801Z,6.57
2023-05-10T18:34:27.292Z,7.35
2023-05-10T18:36:53.880Z,6.90
2023-05-10T18:39:20.655Z,5.18
2023-05-10T18:41:47.371Z,5.88
2023-05-10T18:44:14.556Z,5.78
2023-05-10T18:46:42.358Z,6.05
2023-05-10T18:49:09.276Z,6.00
2023-05-10T18:51:36.073Z,6.55
2023-05-10T18:54:02.638Z,6.30
2023-05-10T18:56:29.257Z,5.82
2023-05-10T18:58:56.045Z,5.70
2023-05-10T19:01:22.662Z,6.28
2023-05-10T19:03:49.191Z,5.15
2023-05-10T19:06:15.756Z,5.38
2023-05-10T19:08:42.282Z,5.30
2023-05-10T19:11:08.914Z,4.88
2023-05-10T19:13:35.597Z,6.70
2023-05-10T19:16:05.907Z,4.72
2023-05-10T19:18:33.206Z,4.88
2023-05-10T19:21:03.264Z,4.80
2023-05-10T19:23:31.796Z,5.05
2023-05-10T19:25:58.316Z,5.60
2023-05-10T19:28:25.024Z,5.45
2023-05-10T19:30:51.607Z,5.60
2023-05-10T19:33:20.978Z,4.70
2023-05-10T19:35:49.420Z,4.68
2023-05-10T19:38:16.339Z,5.05
2023-05-10T19:40:43.250Z,7.63
2023-05-10T19:43:09.884Z,5.20
2023-05-10T19:45:36.408Z,4.22
2023-05-10T19:48:03.081Z,4.85
2023-05-10T19:50:29.661Z,4.13
2023-05-10T19:52:58.393Z,4.75
2023-05-10T19:55:26.740Z,4.00
2023-05-10T19:57:53.278Z,4.40
2023-05-10T20:00:19.809Z,5.07
2023-05-10T20:02:46.357Z,4.82
2023-05-10T20:05:12.889Z,4.57
2023-05-10T20:07:39.376Z,5.00
2023-05-10T20:10:09.446Z,4.18
2023-05-10T20:12:36.396Z,4.53
2023-05-10T20:15:03.882Z,4.60
2023-05-10T20:17:30.444Z,4.18
2023-05-10T20:19:56.931Z,4.53
2023-05-10T20:22:23.449Z,7.32
2023-05-10T20:24:50.096Z,4.63
2023-05-10T20:27:17.155Z,4.35
2023-05-10T20:29:44.112Z,4.93
2023-05-10T20:32:10.671Z,5.00
2023-05-10T20:34:37.208Z,5.75
2023-05-10T20:37:03.904Z,5.38
2023-05-10T20:39:30.484Z,5.80
2023-05-10T20:41:56.972Z,5.70
2023-05-10T20:44:23.555Z,6.57
2023-05-10T20:46:50.047Z,6.78
2023-05-10T20:49:17.683Z,6.65
2023-05-10T20:51:44.356Z,7.25
2023-05-10T20:54:10.924Z,6.97
2023-05-10T20:56:37.569Z,7.20
2023-05-10T20:59:04.401Z,7.18
2023-05-10T21:01:31.786Z,8.00
2023-05-10T21:03:58.449Z,8.23
2023-05-10T21:06:25.109Z,8.63
2023-05-10T21:08:51.628Z,9.13
2023-05-10T21:11:18.137Z,8.80
2023-05-10T21:13:44.724Z,8.60
2023-05-10T21:16:11.264Z,9.00
2023-05-10T21:18:37.817Z,8.95
2023-05-10T21:21:04.546Z,8.90
2023-05-10T21:23:32.476Z,9.07
2023-05-10T21:26:02.634Z,9.10
2023-05-10T21:28:29.129Z,9.35
2023-05-10T21:30:55.883Z,9.25
2023-05-10T21:33:22.415Z,9.45
2023-05-10T21:35:48.982Z,10.38
2023-05-10T21:38:15.765Z,12.32
2023-05-10T21:40:42.460Z,10.90
2023-05-10T21:43:09.622Z,10.70
2023-05-10T21:45:36.503Z,10.88
2023-05-10T21:48:03.819Z,10.88
2023-05-10T21:50:30.505Z,10.10
2023-05-10T21:52:57.049Z,10.52
2023-05-10T21:55:23.779Z,10.75
2023-05-10T21:57:50.951Z,10.88
2023-05-10T22:00:19.375Z,11.77
2023-05-10T22:02:46.864Z,11.50
2023-05-10T22:05:13.603Z,11.20
2023-05-10T22:07:40.311Z,11.75
2023-05-10T22:10:07.742Z,11.63
2023-05-10T22:12:34.190Z,11.93
2023-05-10T22:15:10.483Z,12.82
2023-05-10T22:17:39.294Z,14.27
2023-05-10T22:20:09.320Z,13.40
2023-05-10T22:22:36.761Z,12.65
2023-05-10T22:25:03.888Z,13.38
2023-05-10T22:27:30.369Z,13.57
2023-05-10T22:29:56.830Z,14.15
2023-05-10T22:32:24.201Z,15.07
2023-05-10T22:34:50.757Z,14.52
2023-05-10T22:37:17.985Z,13.18
2023-05-10T22:39:48.000Z,14.82
2023-05-10T22:42:14.512Z,14.63
2023-05-10T22:44:41.131Z,14.50
2023-05-10T22:47:08.956Z,14.48
2023-05-10T22:49:35.448Z,13.07
2023-05-10T22:52:01.986Z,13.68
2023-05-10T22:54:28.460Z,11.95
2023-05-10T22:56:56.030Z,14.35
2023-05-10T22:59:22.569Z,13.93
2023-05-10T23:01:49.244Z,14.50
2023-05-10T23:04:15.888Z,14.13
2023-05-10T23:06:42.414Z,14.15
2023-05-10T23:09:09.020Z,14.05
2023-05-10T23:11:35.495Z,13.93
2023-05-10T23:14:01.991Z,14.10
2023-05-10T23:16:28.568Z,14.25
2023-05-10T23:18:55.425Z,14.25
2023-05-10T23:21:22.031Z,13.77
2023-05-10T23:23:48.667Z,13.93
2023-05-10T23:26:15.170Z,14.05
2023-05-10T23:28:41.832Z,14.07
2023-05-10T23:31:08.349Z,14.93
2023-05-10T23:33:34.833Z,15.80
2023-05-10T23:36:01.416Z,14.75
2023-05-10T23:38:27.932Z,14.15
2023-05-10T23:40:54.967Z,13.48
2023-05-10T23:43:21.887Z,13.90
2023-05-10T23:45:57.794Z,14.65
2023-05-10T23:48:24.724Z,14.43
2023-05-10T23:50:51.233Z,14.40
2023-05-10T23:53:17.841Z,15.95
2023-05-10T23:55:44.472Z,15.10
2023-05-10T23:58:11.749Z,17.00
